createdAt,value
2017-07-09T00:00:50.610Z,17.87
2017-07-09T00:03:19.891Z,15.53
2017-07-09T00:05:48.383Z,20.07
2017-07-09T00:08:16.863Z,18.40
2017-07-09T00:10:46.051Z,15.60
2017-07-09T00:13:15.133Z,26.77
2017-07-09T00:15:43.632Z,16.20
2017-07-09T00:18:12.036Z,14.77
2017-07-09T00:20:40.360Z,11.90
2017-07-09T00:23:09.474Z,15.00
2017-07-09T00:25:38.581Z,14.63
2017-07-09T00:28:07.775Z,17.07
2017-07-09T00:30:36.153Z,18.30
2017-07-09T00:33:04.514Z,17.17
2017-07-09T00:35:32.820Z,13.13
2017-07-09T00:38:01.282Z,15.37
2017-07-09T00:40:29.664Z,12.80
2017-07-09T00:42:59.460Z,13.43
2017-07-09T00:45:28.678Z,13.87
2017-07-09T00:47:57.787Z,14.00
2017-07-09T00:50:26.555Z,15.50
2017-07-09T00:52:54.884Z,10.67
2017-07-09T00:55:23.317Z,11.50
2017-07-09T00:57:52.410Z,16.43
2017-07-09T01:00:20.807Z,16.13
2017-07-09T01:02:49.264Z,15.10
2017-07-09T01:05:17.852Z,14.53
2017-07-09T01:07:46.920Z,17.40
2017-07-09T01:10:15.426Z,17.00
2017-07-09T01:12:44.740Z,17.43
2017-07-09T01:15:13.304Z,16.90
2017-07-09T01:17:42.371Z,16.50
2017-07-09T01:20:10.683Z,15.93
2017-07-09T01:22:39.926Z,23.47
2017-07-09T01:25:08.251Z,15.47
2017-07-09T01:27:37.559Z,14.93
2017-07-09T01:30:05.924Z,16.67
2017-07-09T01:32:35.006Z,15.27
2017-07-09T01:35:03.713Z,18.07
2017-07-09T01:37:32.801Z,14.03
2017-07-09T01:40:02.018Z,19.60
2017-07-09T01:42:30.475Z,12.77
2017-07-09T01:44:58.854Z,15.53
2017-07-09T01:47:28.152Z,12.67
2017-07-09T01:49:57.228Z,13.07
2017-07-09T01:52:25.631Z,13.40
2017-07-09T01:54:54.823Z,14.87
2017-07-09T01:57:23.151Z,13.90
2017-07-09T01:59:51.683Z,13.93
2017-07-09T02:02:20.759Z,19.70
2017-07-09T02:04:49.259Z,21.37
2017-07-09T02:07:17.611Z,17.87
2017-07-09T02:09:45.911Z,14.43
2017-07-09T02:12:14.596Z,12.47
2017-07-09T02:14:43.420Z,17.77
2017-07-09T02:17:11.727Z,18.50
2017-07-09T02:19:40.151Z,16.40
2017-07-09T02:22:09.220Z,22.80
2017-07-09T02:24:37.545Z,24.53
2017-07-09T02:27:05.891Z,22.03
2017-07-09T02:29:35.291Z,18.77
2017-07-09T02:32:04.355Z,19.07
2017-07-09T02:34:33.294Z,18.20
2017-07-09T02:37:01.650Z,21.23
2017-07-09T02:39:30.048Z,14.33
2017-07-09T02:41:59.122Z,16.20
2017-07-09T02:44:27.509Z,16.87
2017-07-09T02:46:55.984Z,16.17
2017-07-09T02:49:25.083Z,17.57
2017-07-09T02:51:54.161Z,15.13
2017-07-09T02:54:22.526Z,14.93
2017-07-09T02:56:50.931Z,14.50
2017-07-09T02:59:19.523Z,18.00
2017-07-09T03:01:48.578Z,27.43
2017-07-09T03:04:16.895Z,19.03
2017-07-09T03:06:45.263Z,19.63
2017-07-09T03:09:14.331Z,16.87
2017-07-09T03:11:43.667Z,18.20
2017-07-09T03:14:12.773Z,23.87
2017-07-09T03:16:41.822Z,15.67
2017-07-09T03:19:10.138Z,14.00
2017-07-09T03:21:39.220Z,15.53
2017-07-09T03:24:08.614Z,18.90
2017-07-09T03:26:37.684Z,14.00
2017-07-09T03:29:06.009Z,13.30
2017-07-09T03:31:34.468Z,19.20
2017-07-09T03:34:03.539Z,37.20
2017-07-09T03:36:32.660Z,16.97
2017-07-09T03:39:01.056Z,13.23
2017-07-09T03:41:30.140Z,14.40
2017-07-09T03:43:58.608Z,15.87
2017-07-09T03:46:27.712Z,14.80
2017-07-09T03:48:56.813Z,15.47
2017-07-09T03:51:25.146Z,16.63
2017-07-09T03:53:53.562Z,17.20
2017-07-09T03:56:23.059Z,18.43
2017-07-09T03:58:51.511Z,17.60
2017-07-09T04:01:19.812Z,19.00
2017-07-09T04:03:48.911Z,20.57
2017-07-09T04:06:17.239Z,17.90
2017-07-09T04:08:45.613Z,13.73
2017-07-09T04:11:13.920Z,13.00
2017-07-09T04:13:42.636Z,12.80
2017-07-09T04:16:11.445Z,10.70
2017-07-09T04:18:39.771Z,11.87
2017-07-09T04:21:08.898Z,15.67
2017-07-09T04:23:37.991Z,15.67
2017-07-09T04:26:07.101Z,13.03
2017-07-09T04:28:35.455Z,11.83
2017-07-09T04:31:04.755Z,17.53
2017-07-09T04:33:33.839Z,15.43
2017-07-09T04:36:02.123Z,14.27
2017-07-09T04:38:31.219Z,17.07
2017-07-09T04:41:00.296Z,17.10
2017-07-09T04:43:29.005Z,19.07
2017-07-09T04:45:58.084Z,19.30
2017-07-09T04:48:26.384Z,16.47
2017-07-09T04:50:54.757Z,18.73
2017-07-09T04:53:23.847Z,20.60
2017-07-09T04:55:53.143Z,17.40
2017-07-09T04:58:22.239Z,18.07
2017-07-09T05:00:50.632Z,16.47
2017-07-09T05:03:19.815Z,17.53
2017-07-09T05:05:48.879Z,14.40
2017-07-09T05:08:17.207Z,16.40
2017-07-09T05:10:45.544Z,15.67
2017-07-09T05:13:14.247Z,13.47
2017-07-09T05:15:43.358Z,12.57
2017-07-09T05:18:11.671Z,13.43
2017-07-09T05:20:39.991Z,10.37
2017-07-09T05:23:08.388Z,10.90
2017-07-09T05:25:37.779Z,10.60
2017-07-09T05:28:06.885Z,12.20
2017-07-09T05:30:35.980Z,13.10
2017-07-09T05:33:04.325Z,12.57
2017-07-09T05:35:33.414Z,9.57
2017-07-09T05:38:01.883Z,11.57
2017-07-09T05:40:30.191Z,11.30
2017-07-09T05:42:58.687Z,10.20
2017-07-09T05:45:27.016Z,11.50
2017-07-09T05:47:55.332Z,10.97
2017-07-09T05:50:24.524Z,10.17
2017-07-09T05:52:53.013Z,13.43
2017-07-09T05:55:22.260Z,14.60
2017-07-09T05:57:50.597Z,16.83
2017-07-09T06:00:19.640Z,16.97
2017-07-09T06:02:48.401Z,18.07
2017-07-09T06:05:16.754Z,15.03
2017-07-09T06:07:45.819Z,12.47
2017-07-09T06:10:14.135Z,15.83
2017-07-09T06:12:42.446Z,14.57
2017-07-09T06:15:11.174Z,20.37
2017-07-09T06:17:40.354Z,15.50
2017-07-09T06:20:08.635Z,13.33
2017-07-09T06:22:36.954Z,34.93
2017-07-09T06:25:05.309Z,34.97
2017-07-09T06:27:34.525Z,21.60
2017-07-09T06:30:02.979Z,30.10
2017-07-09T06:32:32.286Z,26.50
2017-07-09T06:35:00.610Z,21.37
2017-07-09T06:37:28.957Z,21.60
2017-07-09T06:39:57.541Z,26.73
2017-07-09T06:42:25.857Z,26.90
2017-07-09T06:44:54.156Z,19.57
2017-07-09T06:47:23.279Z,21.30
2017-07-09T06:49:51.584Z,20.60
2017-07-09T06:52:20.125Z,20.77
2017-07-09T06:54:49.227Z,29.10
2017-07-09T06:57:17.656Z,25.10
2017-07-09T06:59:46.085Z,15.60
2017-07-09T07:02:14.461Z,19.27
2017-07-09T07:04:43.098Z,17.97
2017-07-09T07:07:11.424Z,15.07
2017-07-09T07:09:40.510Z,18.43
2017-07-09T07:12:10.017Z,19.10
2017-07-09T07:14:39.085Z,19.37
2017-07-09T07:17:07.497Z,16.23
2017-07-09T07:19:36.576Z,13.80
2017-07-09T07:22:04.966Z,15.60
2017-07-09T07:24:34.259Z,11.43
2017-07-09T07:27:02.564Z,12.27
2017-07-09T07:29:30.913Z,15.50
2017-07-09T07:32:00.008Z,11.77
2017-07-09T07:34:29.077Z,15.27
2017-07-09T07:36:57.480Z,15.97
2017-07-09T07:39:25.774Z,19.57
2017-07-09T07:41:54.241Z,13.73
2017-07-09T07:44:22.624Z,15.37
2017-07-09T07:46:51.691Z,11.33
2017-07-09T07:49:21.008Z,18.70
2017-07-09T07:51:50.086Z,11.17
2017-07-09T07:54:18.383Z,25.47
2017-07-09T07:56:46.763Z,17.70
2017-07-09T07:59:15.362Z,14.03
2017-07-09T08:01:43.699Z,12.00
2017-07-09T08:04:12.783Z,19.40
2017-07-09T08:06:41.199Z,13.93
2017-07-09T08:09:10.288Z,14.57
2017-07-09T08:11:39.688Z,18.50
2017-07-09T08:14:08.751Z,13.90
2017-07-09T08:16:37.062Z,11.40
2017-07-09T08:19:05.437Z,14.27
2017-07-09T08:21:34.504Z,13.30
2017-07-09T08:24:03.632Z,11.50
2017-07-09T08:26:32.208Z,13.50
2017-07-09T08:29:01.607Z,10.83
2017-07-09T08:31:30.104Z,13.00
2017-07-09T08:33:58.440Z,15.57
2017-07-09T08:36:26.768Z,14.57
2017-07-09T08:38:55.084Z,16.80
2017-07-09T08:41:23.604Z,13.27
2017-07-09T08:43:52.708Z,12.40
2017-07-09T08:46:21.093Z,14.90
2017-07-09T08:48:49.443Z,14.77
2017-07-09T08:51:17.777Z,12.80
2017-07-09T08:53:46.381Z,15.07
2017-07-09T08:56:15.475Z,16.90
2017-07-09T08:58:44.610Z,14.00
2017-07-09T09:01:13.902Z,13.13
2017-07-09T09:03:42.396Z,17.13
2017-07-09T09:06:10.762Z,14.80
2017-07-09T09:08:39.071Z,21.30
2017-07-09T09:11:07.385Z,13.27
2017-07-09T09:13:36.111Z,18.60
2017-07-09T09:16:05.452Z,18.50
2017-07-09T09:18:34.083Z,17.93
2017-07-09T09:21:02.426Z,15.53
2017-07-09T09:23:31.540Z,17.07
2017-07-09T09:25:59.903Z,19.70
2017-07-09T09:28:28.216Z,14.80
2017-07-09T09:30:57.312Z,14.13
2017-07-09T09:33:26.379Z,17.33
2017-07-09T09:35:54.879Z,19.97
2017-07-09T09:38:23.203Z,12.90
2017-07-09T09:40:51.532Z,14.03
2017-07-09T09:43:20.627Z,16.50
2017-07-09T09:45:49.697Z,13.60
2017-07-09T09:48:18.101Z,29.40
2017-07-09T09:50:46.479Z,16.73
2017-07-09T09:53:14.962Z,15.13
2017-07-09T09:55:44.062Z,14.73
2017-07-09T09:58:13.166Z,13.27
2017-07-09T10:00:41.557Z,11.80
2017-07-09T10:03:09.853Z,13.83
2017-07-09T10:05:38.283Z,17.00
2017-07-09T10:08:06.643Z,14.43
2017-07-09T10:10:35.754Z,12.17
2017-07-09T10:13:04.863Z,13.50
2017-07-09T10:15:33.431Z,10.17
2017-07-09T10:18:01.759Z,13.53
2017-07-09T10:20:30.089Z,10.23
2017-07-09T10:22:58.461Z,12.90
2017-07-09T10:25:27.575Z,11.43
2017-07-09T10:27:56.011Z,13.83
2017-07-09T10:30:24.311Z,14.13
2017-07-09T10:32:53.387Z,12.10
2017-07-09T10:35:21.726Z,14.03
2017-07-09T10:37:50.046Z,10.70
2017-07-09T10:40:18.364Z,12.23
2017-07-09T10:42:46.697Z,11.67
2017-07-09T10:45:15.140Z,15.43
2017-07-09T10:47:43.493Z,12.43
2017-07-09T10:50:11.935Z,14.57
2017-07-09T10:52:40.264Z,15.97
2017-07-09T10:55:08.556Z,15.83
2017-07-09T10:57:36.991Z,18.50
2017-07-09T11:00:05.304Z,18.07
2017-07-09T11:02:33.611Z,16.80
2017-07-09T11:05:01.966Z,20.73
2017-07-09T11:07:30.292Z,15.67
2017-07-09T11:09:59.492Z,14.40
2017-07-09T11:12:28.568Z,21.33
2017-07-09T11:14:56.895Z,21.73
2017-07-09T11:17:25.229Z,18.80
2017-07-09T11:19:54.308Z,19.80
2017-07-09T11:22:22.639Z,25.37
2017-07-09T11:24:50.934Z,29.53
2017-07-09T11:27:19.571Z,25.13
2017-07-09T11:29:48.003Z,19.33
2017-07-09T11:32:16.316Z,21.63
2017-07-09T11:34:44.817Z,15.97
2017-07-09T11:37:13.867Z,16.80
2017-07-09T11:39:42.170Z,15.43
2017-07-09T11:42:11.368Z,15.80
2017-07-09T11:44:39.706Z,16.17
2017-07-09T11:47:08.003Z,16.67
2017-07-09T11:49:36.407Z,15.57
2017-07-09T11:52:05.491Z,13.20
2017-07-09T11:54:34.292Z,16.60
2017-07-09T11:57:03.610Z,13.70
2017-07-09T11:59:31.931Z,16.13
2017-07-09T12:02:00.252Z,16.77
2017-07-09T12:04:29.322Z,14.30
2017-07-09T12:06:57.747Z,15.40
2017-07-09T12:09:26.056Z,12.10
2017-07-09T12:11:54.365Z,12.40
2017-07-09T12:14:23.464Z,14.87
2017-07-09T12:16:51.799Z,12.77
2017-07-09T12:19:20.152Z,12.80
2017-07-09T12:21:48.480Z,20.80
2017-07-09T12:24:17.186Z,20.80
2017-07-09T12:26:45.509Z,19.07
2017-07-09T12:29:13.820Z,19.40
2017-07-09T12:31:42.145Z,35.03
2017-07-09T12:34:10.456Z,23.20
2017-07-09T12:36:38.772Z,23.03
2017-07-09T12:39:07.099Z,25.10
2017-07-09T12:41:35.540Z,31.13
2017-07-09T12:44:03.963Z,23.10
2017-07-09T12:46:32.263Z,26.13
2017-07-09T12:49:00.701Z,26.17
2017-07-09T12:51:29.000Z,25.87
2017-07-09T12:53:57.300Z,21.10
2017-07-09T12:56:25.658Z,17.63
2017-07-09T12:58:53.972Z,18.50
2017-07-09T13:01:22.447Z,16.43
2017-07-09T13:03:50.743Z,23.53
2017-07-09T13:06:19.047Z,20.30
2017-07-09T13:08:47.376Z,22.30
2017-07-09T13:11:16.451Z,24.70
2017-07-09T13:13:44.901Z,25.87
2017-07-09T13:16:13.202Z,22.57
2017-07-09T13:18:41.500Z,27.80
2017-07-09T13:21:09.831Z,25.93
2017-07-09T13:23:38.146Z,24.00
2017-07-09T13:26:07.347Z,20.47
2017-07-09T13:28:36.430Z,19.63
2017-07-09T13:31:04.724Z,20.63
2017-07-09T13:33:34.026Z,23.63
2017-07-09T13:36:03.097Z,23.13
2017-07-09T13:38:32.189Z,20.50
2017-07-09T13:41:00.900Z,18.70
2017-07-09T13:43:29.970Z,16.23
2017-07-09T13:45:58.267Z,17.00
2017-07-09T13:48:27.382Z,18.70
2017-07-09T13:50:55.693Z,21.23
2017-07-09T13:53:24.176Z,22.07
2017-07-09T13:55:52.490Z,26.57
2017-07-09T13:58:21.567Z,23.60
2017-07-09T14:00:49.900Z,21.73
2017-07-09T14:03:18.195Z,21.30
2017-07-09T14:05:46.946Z,25.70
2017-07-09T14:08:15.250Z,25.30
2017-07-09T14:10:43.588Z,25.30
2017-07-09T14:13:12.157Z,16.27
2017-07-09T14:15:40.468Z,18.77
2017-07-09T14:18:08.770Z,17.23
2017-07-09T14:20:37.108Z,20.00
2017-07-09T14:23:05.425Z,21.17
2017-07-09T14:25:33.771Z,24.47
2017-07-09T14:28:02.080Z,30.83
2017-07-09T14:30:30.572Z,27.37
2017-07-09T14:32:58.888Z,26.00
2017-07-09T14:35:27.210Z,27.97
2017-07-09T14:37:55.755Z,22.63
2017-07-09T14:40:24.068Z,20.20
2017-07-09T14:42:52.579Z,22.47
2017-07-09T14:45:20.904Z,20.83
2017-07-09T14:47:49.228Z,20.37
2017-07-09T14:50:17.872Z,22.17
2017-07-09T14:52:46.192Z,21.73
2017-07-09T14:55:14.504Z,22.57
2017-07-09T14:57:42.947Z,23.30
2017-07-09T15:00:11.259Z,23.50
2017-07-09T15:02:39.595Z,22.53
2017-07-09T15:05:07.955Z,21.50
2017-07-09T15:07:36.267Z,20.57
2017-07-09T15:10:04.600Z,20.87
2017-07-09T15:12:32.907Z,26.17
2017-07-09T15:15:01.338Z,22.13
2017-07-09T15:17:29.678Z,19.73
2017-07-09T15:19:57.971Z,21.80
2017-07-09T15:22:26.332Z,21.97
2017-07-09T15:24:54.639Z,27.00
2017-07-09T15:27:24.025Z,21.90
2017-07-09T15:29:52.355Z,20.40
2017-07-09T15:32:20.665Z,24.83
2017-07-09T15:34:49.755Z,27.03
2017-07-09T15:37:18.837Z,28.67
2017-07-09T15:39:47.505Z,22.73
2017-07-09T15:42:15.820Z,22.80
2017-07-09T15:44:44.905Z,23.07
2017-07-09T15:47:13.239Z,31.10
2017-07-09T15:49:41.548Z,30.47
2017-07-09T15:52:10.771Z,28.47
2017-07-09T15:54:39.107Z,23.57
2017-07-09T15:57:07.412Z,24.43
2017-07-09T15:59:36.511Z,27.10
2017-07-09T16:02:04.958Z,28.67
2017-07-09T16:04:33.446Z,26.87
2017-07-09T16:07:01.763Z,28.27
2017-07-09T16:09:30.126Z,27.87
2017-07-09T16:11:58.890Z,28.47
2017-07-09T16:14:27.192Z,34.23
2017-07-09T16:16:56.404Z,30.93
2017-07-09T16:19:24.741Z,26.00
2017-07-09T16:21:53.229Z,25.40
2017-07-09T16:24:21.536Z,32.83
2017-07-09T16:26:49.888Z,22.47
2017-07-09T16:29:18.212Z,30.20
2017-07-09T16:31:46.504Z,35.30
2017-07-09T16:34:14.820Z,32.87
2017-07-09T16:36:43.142Z,44.27
2017-07-09T16:39:11.663Z,35.97
2017-07-09T16:41:40.131Z,30.83
2017-07-09T16:44:08.443Z,27.57
2017-07-09T16:46:37.856Z,28.13
2017-07-09T16:49:06.176Z,27.40
2017-07-09T16:51:34.495Z,30.40
2017-07-09T16:54:02.823Z,29.63
2017-07-09T16:56:31.381Z,27.40
2017-07-09T16:58:59.731Z,22.17
2017-07-09T17:01:28.123Z,30.27
2017-07-09T17:03:56.595Z,26.20
2017-07-09T17:06:25.668Z,23.90
2017-07-09T17:08:54.084Z,25.77
2017-07-09T17:11:22.507Z,23.60
2017-07-09T17:13:50.859Z,25.53
2017-07-09T17:16:19.188Z,21.23
2017-07-09T17:18:48.412Z,27.97
2017-07-09T17:21:16.723Z,35.27
2017-07-09T17:23:45.043Z,28.30
2017-07-09T17:26:14.165Z,25.17
2017-07-09T17:28:43.224Z,20.50
2017-07-09T17:31:11.538Z,23.60
2017-07-09T17:33:39.870Z,34.30
2017-07-09T17:36:08.385Z,30.90
2017-07-09T17:38:36.712Z,29.93
2017-07-09T17:41:05.021Z,27.87
2017-07-09T17:43:34.134Z,30.70
2017-07-09T17:46:03.216Z,34.90
2017-07-09T17:48:32.671Z,38.93
2017-07-09T17:51:00.985Z,29.17
2017-07-09T17:53:29.380Z,35.03
2017-07-09T17:55:57.801Z,34.80
2017-07-09T17:58:26.120Z,32.93
2017-07-09T18:00:55.663Z,32.63
2017-07-09T18:03:24.127Z,39.90
2017-07-09T18:05:52.424Z,37.30
2017-07-09T18:08:20.738Z,33.07
2017-07-09T18:10:49.174Z,33.40
2017-07-09T18:13:18.105Z,45.00
2017-07-09T18:15:46.408Z,37.90
2017-07-09T18:18:15.620Z,43.07
2017-07-09T18:20:43.932Z,40.93
2017-07-09T18:23:12.263Z,30.97
2017-07-09T18:25:40.603Z,39.87
2017-07-09T18:28:08.912Z,27.70
2017-07-09T18:30:37.415Z,31.13
2017-07-09T18:33:05.736Z,36.10
2017-07-09T18:35:34.039Z,38.80
2017-07-09T18:38:02.447Z,33.27
2017-07-09T18:40:31.153Z,34.27
2017-07-09T18:42:59.611Z,35.47
2017-07-09T18:45:27.924Z,46.90
2017-07-09T18:47:56.267Z,40.27
2017-07-09T18:50:24.655Z,28.10
2017-07-09T18:52:53.026Z,22.77
2017-07-09T18:55:21.367Z,21.50
2017-07-09T18:57:49.776Z,18.63
2017-07-09T19:00:18.971Z,20.23
2017-07-09T19:02:47.280Z,22.50
2017-07-09T19:05:15.611Z,23.03
2017-07-09T19:07:43.969Z,20.43
2017-07-09T19:10:12.264Z,17.33
2017-07-09T19:12:40.737Z,22.63
2017-07-09T19:15:09.042Z,18.50
2017-07-09T19:17:37.343Z,18.53
2017-07-09T19:20:05.899Z,18.90
2017-07-09T19:22:34.255Z,22.67
2017-07-09T19:25:03.389Z,23.00
2017-07-09T19:27:31.744Z,18.50
2017-07-09T19:30:00.050Z,18.17
2017-07-09T19:32:28.383Z,23.00
2017-07-09T19:34:56.733Z,19.43
2017-07-09T19:37:25.159Z,20.83
2017-07-09T19:39:53.463Z,18.23
2017-07-09T19:42:21.850Z,20.10
2017-07-09T19:44:50.190Z,19.03
2017-07-09T19:47:18.528Z,23.10
2017-07-09T19:49:46.881Z,25.03
2017-07-09T19:52:15.194Z,35.67
2017-07-09T19:54:44.419Z,23.57
2017-07-09T19:57:12.754Z,24.73
2017-07-09T19:59:41.070Z,26.20
2017-07-09T20:02:09.427Z,19.87
2017-07-09T20:04:38.564Z,23.60
2017-07-09T20:07:06.977Z,32.50
2017-07-09T20:09:35.313Z,37.67
2017-07-09T20:12:03.985Z,20.67
2017-07-09T20:14:33.047Z,18.27
2017-07-09T20:17:02.144Z,20.13
2017-07-09T20:19:30.770Z,17.17
2017-07-09T20:21:59.062Z,19.17
2017-07-09T20:24:27.389Z,19.40
2017-07-09T20:26:55.734Z,17.63
2017-07-09T20:29:24.171Z,19.53
2017-07-09T20:31:52.493Z,16.90
2017-07-09T20:34:20.988Z,18.60
2017-07-09T20:36:49.331Z,18.87
2017-07-09T20:39:17.647Z,16.37
2017-07-09T20:41:46.977Z,19.30
2017-07-09T20:44:15.302Z,18.10
2017-07-09T20:46:43.626Z,21.70
2017-07-09T20:49:12.734Z,21.10
2017-07-09T20:51:41.105Z,21.00
2017-07-09T20:54:09.445Z,19.97
2017-07-09T20:56:37.747Z,18.77
2017-07-09T20:59:06.266Z,19.30
2017-07-09T21:01:34.576Z,18.77
2017-07-09T21:04:03.094Z,15.13
2017-07-09T21:06:31.427Z,14.70
2017-07-09T21:08:59.781Z,17.83
2017-07-09T21:11:28.239Z,20.00
2017-07-09T21:13:56.607Z,19.93
2017-07-09T21:16:25.687Z,14.53
2017-07-09T21:18:54.163Z,17.90
2017-07-09T21:21:22.479Z,17.37
2017-07-09T21:23:51.002Z,21.13
2017-07-09T21:26:19.329Z,22.20
2017-07-09T21:28:47.803Z,19.60
2017-07-09T21:31:16.148Z,18.90
2017-07-09T21:33:44.448Z,18.40
2017-07-09T21:36:13.028Z,21.00
2017-07-09T21:38:42.103Z,20.87
2017-07-09T21:41:10.452Z,16.20
2017-07-09T21:43:38.775Z,21.40
2017-07-09T21:46:07.079Z,22.20
2017-07-09T21:48:35.411Z,18.00
2017-07-09T21:51:04.488Z,18.73
2017-07-09T21:53:33.738Z,17.90
2017-07-09T21:56:02.045Z,15.07
2017-07-09T21:58:30.342Z,16.70
2017-07-09T22:00:58.680Z,21.27
2017-07-09T22:03:26.982Z,21.63
2017-07-09T22:05:55.400Z,22.70
2017-07-09T22:08:24.480Z,22.80
2017-07-09T22:10:53.572Z,24.87
2017-07-09T22:13:21.898Z,16.93
2017-07-09T22:15:50.226Z,25.07
2017-07-09T22:18:18.647Z,25.40
2017-07-09T22:20:46.945Z,19.43
2017-07-09T22:23:15.471Z,21.50
2017-07-09T22:25:44.577Z,17.87
2017-07-09T22:28:13.644Z,27.37
2017-07-09T22:30:41.963Z,25.87
2017-07-09T22:33:10.499Z,21.23
2017-07-09T22:35:38.938Z,22.37
2017-07-09T22:38:07.299Z,25.90
2017-07-09T22:40:36.366Z,23.30
2017-07-09T22:43:04.689Z,27.57
2017-07-09T22:45:32.992Z,22.47
2017-07-09T22:48:01.320Z,25.83
2017-07-09T22:50:30.388Z,26.07
2017-07-09T22:52:59.195Z,25.07
2017-07-09T22:55:27.512Z,53.23
2017-07-09T22:57:55.830Z,63.87
2017-07-09T23:00:24.149Z,65.97
2017-07-09T23:02:52.446Z,60.27
2017-07-09T23:05:20.871Z,60.20
2017-07-09T23:07:49.203Z,49.47
2017-07-09T23:10:17.515Z,54.27
2017-07-09T23:12:45.841Z,59.77
2017-07-09T23:15:14.141Z,62.40
2017-07-09T23:17:42.771Z,58.43
2017-07-09T23:20:11.844Z,55.50
2017-07-09T23:22:40.159Z,70.50
2017-07-09T23:25:08.480Z,53.17
2017-07-09T23:27:36.778Z,55.00
2017-07-09T23:30:05.090Z,50.53
2017-07-09T23:32:33.386Z,54.83
2017-07-09T23:35:01.843Z,46.40
2017-07-09T23:37:30.263Z,49.53
2017-07-09T23:39:58.568Z,74.60
2017-07-09T23:42:27.253Z,61.00
2017-07-09T23:44:56.327Z,50.10
2017-07-09T23:47:24.618Z,54.83
2017-07-09T23:49:52.948Z,82.80
2017-07-09T23:52:21.258Z,88.63
2017-07-09T23:54:51.096Z,102.63
2017-07-09T23:57:20.179Z,64.87
2017-07-09T23:59:48.519Z,68.30
